createdAt,value
2023-01-26T00:01:23.888Z,-1.20
2023-01-26T00:03:51.131Z,-1.30
2023-01-26T00:06:20.050Z,-1.30
2023-01-26T00:08:49.448Z,-1.40
2023-01-26T00:11:19.739Z,-1.30
2023-01-26T00:13:49.205Z,-1.30
2023-01-26T00:16:16.615Z,-1.30
2023-01-26T00:18:43.866Z,-1.20
2023-01-26T00:21:28.928Z,-1.20
2023-01-26T00:23:55.848Z,-1.20
2023-01-26T00:26:25.739Z,-1.40
2023-01-26T00:28:53.472Z,-1.40
2023-01-26T00:31:22.836Z,-1.40
2023-01-26T00:33:51.622Z,-1.40
2023-01-26T00:36:18.573Z,-1.40
2023-01-26T00:38:45.667Z,-1.30
2023-01-26T00:41:32.698Z,-1.30
2023-01-26T00:44:00.435Z,-1.40
2023-01-26T00:46:27.771Z,-1.40
2023-01-26T00:48:54.766Z,-1.50
2023-01-26T00:51:21.589Z,-1.50
2023-01-26T00:53:48.646Z,-1.60
2023-01-26T00:56:15.516Z,-1.70
2023-01-26T00:58:43.011Z,-1.70
2023-01-26T01:01:11.515Z,-1.80
2023-01-26T01:03:42.403Z,-1.70
2023-01-26T01:06:09.325Z,-1.80
2023-01-26T01:08:36.180Z,-1.80
2023-01-26T01:11:08.218Z,-1.90
2023-01-26T01:13:35.599Z,-1.80
2023-01-26T01:16:10.319Z,-1.90
2023-01-26T01:18:37.944Z,-1.70
2023-01-26T01:21:12.798Z,-1.70
2023-01-26T01:23:40.324Z,-1.60
2023-01-26T01:26:08.827Z,-1.50
2023-01-26T01:28:36.607Z,-1.60
2023-01-26T01:31:08.579Z,-1.60
2023-01-26T01:33:35.961Z,-1.70
2023-01-26T01:36:14.172Z,-1.60
2023-01-26T01:38:42.042Z,-1.70
2023-01-26T01:41:10.387Z,-1.70
2023-01-26T01:43:37.917Z,-1.70
2023-01-26T01:46:20.312Z,-1.60
2023-01-26T01:49:04.557Z,-1.60
2023-01-26T01:51:38.543Z,-1.50
2023-01-26T01:54:10.821Z,-1.60
2023-01-26T01:56:41.042Z,-1.80
2023-01-26T01:59:11.464Z,-1.80
2023-01-26T02:01:38.353Z,-1.90
2023-01-26T02:04:07.007Z,-1.90
2023-01-26T02:06:43.642Z,-1.80
2023-01-26T02:09:31.329Z,-1.80
2023-01-26T02:12:00.133Z,-1.90
2023-01-26T02:14:27.746Z,-1.90
2023-01-26T02:16:54.507Z,-1.90
2023-01-26T02:19:34.535Z,-2.00
2023-01-26T02:22:10.817Z,-2.00
2023-01-26T02:24:40.174Z,-2.00
2023-01-26T02:27:07.344Z,-1.90
2023-01-26T02:29:34.605Z,-2.00
2023-01-26T02:32:01.442Z,-2.00
2023-01-26T02:34:28.911Z,-2.10
2023-01-26T02:37:01.055Z,-2.10
2023-01-26T02:39:43.521Z,-2.10
2023-01-26T02:42:28.795Z,-2.10
2023-01-26T02:44:56.064Z,-2.20
2023-01-26T02:47:22.947Z,-2.20
2023-01-26T02:49:52.902Z,-2.20
2023-01-26T02:52:27.326Z,-2.30
2023-01-26T02:55:28.576Z,-2.10
2023-01-26T02:58:04.059Z,-2.10
2023-01-26T03:00:41.866Z,-2.00
2023-01-26T03:03:23.401Z,-2.10
2023-01-26T03:05:51.272Z,-2.10
2023-01-26T03:08:18.684Z,-2.20
2023-01-26T03:10:47.568Z,-2.10
2023-01-26T03:13:14.885Z,-2.10
2023-01-26T03:15:52.592Z,-2.10
2023-01-26T03:18:41.546Z,-2.10
2023-01-26T03:21:33.328Z,-2.10
2023-01-26T03:24:20.451Z,-2.10
2023-01-26T03:27:07.122Z,-2.10
2023-01-26T03:29:34.696Z,-2.00
2023-01-26T03:32:03.584Z,-2.10
2023-01-26T03:34:31.158Z,-2.10
2023-01-26T03:36:58.994Z,-2.00
2023-01-26T03:39:48.560Z,-1.90
2023-01-26T03:42:34.193Z,-1.80
2023-01-26T03:45:19.784Z,-1.90
2023-01-26T03:48:07.077Z,-1.90
2023-01-26T03:50:52.875Z,-1.80
2023-01-26T03:53:42.406Z,-1.90
2023-01-26T03:56:32.683Z,-1.90
2023-01-26T03:59:09.148Z,-1.90
2023-01-26T04:01:41.770Z,-1.90
2023-01-26T04:04:29.426Z,-1.90
2023-01-26T04:07:15.140Z,-1.90
2023-01-26T04:09:47.627Z,-1.90
2023-01-26T04:12:14.400Z,-1.90
2023-01-26T04:15:21.525Z,-1.80
2023-01-26T04:18:07.038Z,-1.60
2023-01-26T04:20:53.396Z,-1.60
2023-01-26T04:23:21.207Z,-1.70
2023-01-26T04:25:50.157Z,-1.70
2023-01-26T04:28:17.510Z,-1.70
2023-01-26T04:30:45.724Z,-1.70
2023-01-26T04:33:12.607Z,-1.70
2023-01-26T04:35:40.439Z,-1.70
2023-01-26T04:38:07.544Z,-1.90
2023-01-26T04:40:35.610Z,-1.90
2023-01-26T04:43:02.816Z,-1.90
2023-01-26T04:45:29.639Z,-1.80
2023-01-26T04:47:57.088Z,-1.80
2023-01-26T04:50:27.760Z,-1.90
2023-01-26T04:52:54.665Z,-2.00
2023-01-26T04:55:21.766Z,-2.00
2023-01-26T04:57:48.657Z,-2.10
2023-01-26T05:00:15.901Z,-2.10
2023-01-26T05:02:44.002Z,-2.00
2023-01-26T05:05:11.720Z,-2.00
2023-01-26T05:07:39.232Z,-1.90
2023-01-26T05:10:06.557Z,-1.90
2023-01-26T05:12:43.575Z,-1.80
2023-01-26T05:15:34.086Z,-1.80
2023-01-26T05:18:06.763Z,-1.70
2023-01-26T05:20:57.257Z,-1.70
2023-01-26T05:23:29.205Z,-1.70
2023-01-26T05:26:11.333Z,-1.70
2023-01-26T05:28:55.698Z,-1.70
2023-01-26T05:31:22.915Z,-1.70
2023-01-26T05:33:50.431Z,-1.90
2023-01-26T05:36:21.727Z,-1.90
2023-01-26T05:38:49.029Z,-1.90
2023-01-26T05:41:19.684Z,-2.00
2023-01-26T05:43:59.112Z,-1.90
2023-01-26T05:46:43.881Z,-2.00
2023-01-26T05:49:10.990Z,-1.90
2023-01-26T05:51:37.879Z,-1.90
2023-01-26T05:54:07.001Z,-2.00
2023-01-26T05:56:34.815Z,-2.00
2023-01-26T05:59:07.246Z,-2.10
2023-01-26T06:01:34.663Z,-2.10
2023-01-26T06:04:05.467Z,-2.10
2023-01-26T06:06:41.609Z,-2.10
2023-01-26T06:09:20.860Z,-2.10
2023-01-26T06:12:05.798Z,-2.10
2023-01-26T06:14:51.753Z,-2.20
2023-01-26T06:17:18.845Z,-2.20
2023-01-26T06:19:47.946Z,-2.10
2023-01-26T06:22:15.148Z,-2.00
2023-01-26T06:24:46.705Z,-2.00
2023-01-26T06:27:15.593Z,-2.00
2023-01-26T06:29:44.628Z,-2.00
2023-01-26T06:32:13.530Z,-2.00
2023-01-26T06:34:42.375Z,-2.00
2023-01-26T06:37:10.266Z,-2.10
2023-01-26T06:39:41.746Z,-2.10
2023-01-26T06:42:09.576Z,-2.10
2023-01-26T06:44:37.995Z,-2.00
2023-01-26T06:47:05.995Z,-2.00
2023-01-26T06:49:33.921Z,-2.00
2023-01-26T06:52:22.869Z,-2.00
2023-01-26T06:54:54.272Z,-1.90
2023-01-26T06:57:26.956Z,-1.90
2023-01-26T07:00:29.285Z,-2.00
2023-01-26T07:03:12.915Z,-2.00
2023-01-26T07:05:39.776Z,-2.10
2023-01-26T07:08:08.678Z,-2.10
2023-01-26T07:10:38.796Z,-1.90
2023-01-26T07:13:06.863Z,-1.90
2023-01-26T07:15:33.791Z,-1.90
2023-01-26T07:18:01.255Z,-1.70
2023-01-26T07:20:28.395Z,-1.60
2023-01-26T07:22:55.167Z,-1.60
2023-01-26T07:25:22.061Z,-1.60
2023-01-26T07:27:48.840Z,-1.70
2023-01-26T07:30:16.199Z,-1.70
2023-01-26T07:32:43.031Z,-1.70
2023-01-26T07:35:10.060Z,-1.60
2023-01-26T07:37:36.910Z,-1.60
2023-01-26T07:40:04.294Z,-1.60
2023-01-26T07:42:31.123Z,-1.80
2023-01-26T07:45:09.462Z,-1.80
2023-01-26T07:47:39.278Z,-1.80
2023-01-26T07:50:07.232Z,-1.70
2023-01-26T07:52:34.114Z,-1.80
2023-01-26T07:55:00.975Z,-1.80
2023-01-26T07:57:27.935Z,-1.70
2023-01-26T07:59:54.789Z,-1.70
2023-01-26T08:02:21.633Z,-1.80
2023-01-26T08:04:49.228Z,-1.80
2023-01-26T08:07:16.221Z,-1.80
2023-01-26T08:09:43.045Z,-2.00
2023-01-26T08:12:09.876Z,-2.00
2023-01-26T08:14:46.351Z,-2.10
2023-01-26T08:17:17.206Z,-2.10
2023-01-26T08:19:48.624Z,-2.00
2023-01-26T08:22:15.441Z,-2.00
2023-01-26T08:24:42.265Z,-1.90
2023-01-26T08:27:09.063Z,-1.90
2023-01-26T08:29:36.132Z,-1.80
2023-01-26T08:32:03.034Z,-1.70
2023-01-26T08:34:29.934Z,-1.70
2023-01-26T08:36:56.761Z,-1.70
2023-01-26T08:39:23.665Z,-1.60
2023-01-26T08:41:50.589Z,-1.60
2023-01-26T08:44:17.391Z,-1.60
2023-01-26T08:46:44.533Z,-1.50
2023-01-26T08:49:14.642Z,-1.50
2023-01-26T08:51:41.453Z,-1.50
2023-01-26T08:54:08.508Z,-1.50
2023-01-26T08:56:35.568Z,-1.60
2023-01-26T08:59:02.690Z,-1.60
2023-01-26T09:01:29.522Z,-1.50
2023-01-26T09:03:56.552Z,-1.40
2023-01-26T09:06:23.414Z,-1.40
2023-01-26T09:08:50.571Z,-1.50
2023-01-26T09:11:17.391Z,-1.50
2023-01-26T09:13:44.235Z,-1.50
2023-01-26T09:16:19.409Z,-1.40
2023-01-26T09:18:50.091Z,-1.30
2023-01-26T09:21:17.493Z,-1.20
2023-01-26T09:23:44.337Z,-1.10
2023-01-26T09:26:11.663Z,0.00
2023-01-26T09:28:38.727Z,-1.00
2023-01-26T09:31:08.412Z,-0.80
2023-01-26T09:33:35.340Z,-0.90
2023-01-26T09:36:07.877Z,-1.00
2023-01-26T09:38:34.706Z,-1.00
2023-01-26T09:41:20.581Z,-1.00
2023-01-26T09:44:09.388Z,-0.80
2023-01-26T09:46:56.424Z,-0.60
2023-01-26T09:49:57.503Z,-0.40
2023-01-26T09:52:39.368Z,-0.40
2023-01-26T09:55:15.787Z,-0.40
2023-01-26T09:58:04.869Z,-0.40
2023-01-26T10:00:47.318Z,-0.40
2023-01-26T10:03:32.180Z,-0.50
2023-01-26T10:05:58.987Z,-0.60
2023-01-26T10:08:44.789Z,-0.60
2023-01-26T10:11:16.654Z,-0.60
2023-01-26T10:13:50.629Z,-0.50
2023-01-26T10:16:17.625Z,-0.60
2023-01-26T10:18:54.212Z,-0.70
2023-01-26T10:21:25.021Z,-0.70
2023-01-26T10:23:52.774Z,-0.60
2023-01-26T10:26:22.575Z,-0.60
2023-01-26T10:28:52.046Z,-0.50
2023-01-26T10:31:24.887Z,-0.60
2023-01-26T10:34:10.809Z,-0.90
2023-01-26T10:36:37.716Z,-0.70
2023-01-26T10:39:15.378Z,-0.80
2023-01-26T10:41:58.048Z,-0.70
2023-01-26T10:44:37.069Z,-0.60
2023-01-26T10:47:18.614Z,-0.60
2023-01-26T10:49:45.751Z,-0.70
2023-01-26T10:52:17.745Z,-0.70
2023-01-26T10:54:46.345Z,-0.70
2023-01-26T10:57:32.539Z,-0.90
2023-01-26T11:00:08.470Z,-1.10
2023-01-26T11:02:36.661Z,-1.10
2023-01-26T11:05:09.701Z,-0.90
2023-01-26T11:07:39.089Z,-1.10
2023-01-26T11:10:25.162Z,-1.10
2023-01-26T11:13:06.850Z,-1.20
2023-01-26T11:15:39.605Z,-1.10
2023-01-26T11:18:13.530Z,-1.30
2023-01-26T11:20:40.309Z,-1.30
2023-01-26T11:23:16.192Z,-1.10
2023-01-26T11:26:20.210Z,-0.90
2023-01-26T11:29:09.423Z,-0.80
2023-01-26T11:32:14.190Z,-0.70
2023-01-26T11:34:55.975Z,-0.70
2023-01-26T11:37:49.417Z,-0.80
2023-01-26T11:40:47.188Z,-0.80
2023-01-26T11:44:00.453Z,-0.80
2023-01-26T11:46:36.385Z,-0.90
2023-01-26T11:49:21.577Z,-0.90
2023-01-26T11:52:12.309Z,-0.90
2023-01-26T11:54:55.991Z,-0.90
2023-01-26T11:57:36.077Z,-0.90
2023-01-26T12:00:29.476Z,-0.90
2023-01-26T12:03:03.592Z,-0.90
2023-01-26T12:05:54.073Z,-1.00
2023-01-26T12:08:38.247Z,-0.90
2023-01-26T12:11:24.031Z,-0.90
2023-01-26T12:14:03.031Z,-0.90
2023-01-26T12:16:36.608Z,-0.90
2023-01-26T12:19:11.547Z,-0.90
2023-01-26T12:21:43.736Z,-1.00
2023-01-26T12:24:54.125Z,-0.90
2023-01-26T12:27:29.589Z,-0.90
2023-01-26T12:30:18.505Z,-0.90
2023-01-26T12:32:45.374Z,-1.00
2023-01-26T12:35:13.852Z,-1.00
2023-01-26T12:37:49.345Z,-1.00
2023-01-26T12:40:39.397Z,-1.10
2023-01-26T12:43:35.835Z,-1.30
2023-01-26T12:46:05.730Z,-1.20
2023-01-26T12:48:39.265Z,-1.40
2023-01-26T12:51:11.679Z,-1.30
2023-01-26T12:54:21.426Z,-1.20
2023-01-26T12:56:55.424Z,-1.00
2023-01-26T12:59:47.961Z,-1.10
2023-01-26T13:02:15.804Z,-1.20
2023-01-26T13:04:46.597Z,-1.20
2023-01-26T13:07:33.103Z,-1.20
2023-01-26T13:10:16.238Z,-1.10
2023-01-26T13:13:00.145Z,-1.20
2023-01-26T13:15:29.759Z,-1.20
2023-01-26T13:18:03.051Z,-1.10
2023-01-26T13:20:45.535Z,-1.00
2023-01-26T13:23:39.664Z,-1.00
2023-01-26T13:26:41.496Z,-0.90
2023-01-26T13:29:36.165Z,-0.90
2023-01-26T13:32:23.449Z,-0.90
2023-01-26T13:34:59.185Z,-0.90
2023-01-26T13:37:41.305Z,-1.00
2023-01-26T13:40:32.099Z,-0.90
2023-01-26T13:43:11.752Z,-1.00
2023-01-26T13:46:09.122Z,-1.20
2023-01-26T13:48:46.616Z,-1.20
2023-01-26T13:51:20.996Z,-1.30
2023-01-26T13:54:01.449Z,-1.40
2023-01-26T13:56:34.290Z,-1.60
2023-01-26T13:59:10.736Z,-1.60
2023-01-26T14:01:57.374Z,-1.70
2023-01-26T14:04:30.056Z,-1.80
2023-01-26T14:07:03.634Z,-1.60
2023-01-26T14:09:33.871Z,-1.60
2023-01-26T14:12:03.782Z,-1.50
2023-01-26T14:14:34.899Z,-1.50
2023-01-26T14:17:07.912Z,-1.50
2023-01-26T14:19:41.350Z,-1.30
2023-01-26T14:22:13.484Z,-1.40
2023-01-26T14:24:41.329Z,-1.30
2023-01-26T14:27:31.776Z,-1.40
2023-01-26T14:29:59.055Z,-1.30
2023-01-26T14:32:29.417Z,-1.40
2023-01-26T14:34:59.112Z,-1.40
2023-01-26T14:37:27.136Z,-1.40
2023-01-26T14:40:20.978Z,-1.50
2023-01-26T14:42:50.377Z,-1.50
2023-01-26T14:45:18.373Z,-1.50
2023-01-26T14:47:45.401Z,-1.60
2023-01-26T14:50:20.756Z,-1.70
2023-01-26T14:52:49.040Z,-1.60
2023-01-26T14:55:22.320Z,-1.60
2023-01-26T14:57:49.478Z,-1.60
2023-01-26T15:00:20.572Z,-1.60
2023-01-26T15:02:49.123Z,-1.50
2023-01-26T15:05:22.258Z,-1.60
2023-01-26T15:07:58.938Z,-1.60
2023-01-26T15:11:17.109Z,-1.50
2023-01-26T15:13:52.258Z,-1.50
2023-01-26T15:16:26.113Z,-1.80
2023-01-26T15:19:09.289Z,-1.70
2023-01-26T15:21:40.080Z,-1.70
2023-01-26T15:24:13.828Z,-1.70
2023-01-26T15:26:41.581Z,-1.70
2023-01-26T15:29:24.684Z,-1.70
2023-01-26T15:31:54.445Z,-1.90
2023-01-26T15:34:47.673Z,-2.00
2023-01-26T15:37:32.556Z,-1.90
2023-01-26T15:40:00.023Z,-1.90
2023-01-26T15:42:30.316Z,-1.90
2023-01-26T15:44:57.557Z,-2.00
2023-01-26T15:47:24.573Z,-2.20
2023-01-26T15:49:51.794Z,-2.10
2023-01-26T15:52:21.240Z,-2.10
2023-01-26T15:54:48.085Z,-2.00
2023-01-26T15:57:17.568Z,-2.10
2023-01-26T15:59:44.514Z,-2.10
2023-01-26T16:02:17.547Z,-2.10
2023-01-26T16:04:45.518Z,-2.10
2023-01-26T16:07:14.730Z,-2.10
2023-01-26T16:09:43.097Z,-2.10
2023-01-26T16:12:31.089Z,-2.10
2023-01-26T16:14:59.001Z,-2.10
2023-01-26T16:17:25.806Z,-2.20
2023-01-26T16:19:53.209Z,-2.20
2023-01-26T16:22:20.044Z,-2.30
2023-01-26T16:24:48.399Z,-2.30
2023-01-26T16:27:15.373Z,-2.30
2023-01-26T16:29:42.335Z,-2.30
2023-01-26T16:32:28.234Z,-2.30
2023-01-26T16:34:55.397Z,-2.30
2023-01-26T16:37:22.296Z,-2.30
2023-01-26T16:39:49.157Z,-2.40
2023-01-26T16:42:19.199Z,-2.40
2023-01-26T16:44:46.538Z,-2.40
2023-01-26T16:47:13.476Z,-2.30
2023-01-26T16:49:40.299Z,-2.40
2023-01-26T16:52:09.269Z,-2.40
2023-01-26T16:54:36.221Z,-2.50
2023-01-26T16:57:03.101Z,-2.60
2023-01-26T16:59:29.871Z,-2.60
2023-01-26T17:01:57.199Z,-2.40
2023-01-26T17:04:24.115Z,-2.40
2023-01-26T17:06:51.818Z,-2.30
2023-01-26T17:09:20.689Z,-2.30
2023-01-26T17:11:47.619Z,-2.30
2023-01-26T17:14:14.408Z,-2.40
2023-01-26T17:16:41.278Z,-2.40
2023-01-26T17:19:09.421Z,-2.40
2023-01-26T17:21:36.664Z,-2.40
2023-01-26T17:24:04.053Z,-2.30
2023-01-26T17:26:30.972Z,-2.40
2023-01-26T17:28:57.766Z,-2.50
2023-01-26T17:31:25.065Z,-2.40
2023-01-26T17:33:51.966Z,-2.40
2023-01-26T17:36:20.213Z,-2.40
2023-01-26T17:38:48.365Z,-2.50
2023-01-26T17:41:16.060Z,-2.40
2023-01-26T17:43:43.787Z,-2.30
2023-01-26T17:46:13.504Z,-2.30
2023-01-26T17:48:40.732Z,-2.40
2023-01-26T17:51:09.967Z,-2.40
2023-01-26T17:53:41.167Z,-2.40
2023-01-26T17:56:10.562Z,-2.40
2023-01-26T17:58:38.600Z,-2.50
2023-01-26T18:01:09.833Z,-2.40
2023-01-26T18:03:41.043Z,-2.40
2023-01-26T18:06:08.224Z,-2.40
2023-01-26T18:08:37.132Z,-2.50
2023-01-26T18:11:06.234Z,-2.50
2023-01-26T18:13:33.566Z,-2.50
2023-01-26T18:16:00.448Z,-2.40
2023-01-26T18:18:29.383Z,-2.50
2023-01-26T18:20:56.550Z,-2.50
2023-01-26T18:23:24.743Z,-2.50
2023-01-26T18:25:51.798Z,-2.50
2023-01-26T18:28:18.814Z,-2.50
2023-01-26T18:30:45.830Z,-2.50
2023-01-26T18:33:12.763Z,-2.50
2023-01-26T18:35:40.512Z,-2.40
2023-01-26T18:38:07.353Z,-2.40
2023-01-26T18:40:34.349Z,-2.40
2023-01-26T18:43:01.982Z,-2.50
2023-01-26T18:45:28.753Z,-2.60
2023-01-26T18:47:55.538Z,-2.60
2023-01-26T18:50:22.882Z,-2.60
2023-01-26T18:52:49.681Z,-2.60
2023-01-26T18:55:16.899Z,-2.50
2023-01-26T18:57:43.679Z,-2.50
2023-01-26T19:00:11.597Z,-2.50
2023-01-26T19:02:38.546Z,-2.50
2023-01-26T19:05:08.785Z,-2.50
2023-01-26T19:07:35.741Z,-2.60
2023-01-26T19:10:05.006Z,-2.60
2023-01-26T19:12:31.902Z,-2.60
2023-01-26T19:14:58.799Z,-2.60
2023-01-26T19:17:26.110Z,-2.50
2023-01-26T19:19:53.100Z,-2.50
2023-01-26T19:22:20.444Z,-2.50
2023-01-26T19:24:47.264Z,-2.50
2023-01-26T19:27:14.087Z,-2.50
2023-01-26T19:29:40.936Z,-2.60
2023-01-26T19:32:07.843Z,-2.50
2023-01-26T19:34:35.176Z,-2.50
2023-01-26T19:37:02.130Z,-2.40
2023-01-26T19:39:30.156Z,-2.50
2023-01-26T19:41:57.064Z,-2.60
2023-01-26T19:44:24.129Z,-2.70
2023-01-26T19:46:52.184Z,-2.60
2023-01-26T19:49:20.137Z,-2.60
2023-01-26T19:51:47.742Z,-2.60
2023-01-26T19:54:14.924Z,-2.60
2023-01-26T19:56:41.887Z,-2.60
2023-01-26T19:59:11.405Z,-2.60
2023-01-26T20:01:38.458Z,-2.70
2023-01-26T20:04:09.144Z,-2.80
2023-01-26T20:06:37.016Z,-2.80
2023-01-26T20:09:06.003Z,-2.80
2023-01-26T20:11:34.672Z,-2.80
2023-01-26T20:14:04.686Z,-2.80
2023-01-26T20:16:31.956Z,-2.80
2023-01-26T20:18:59.611Z,-2.80
2023-01-26T20:21:28.162Z,-2.80
2023-01-26T20:23:56.135Z,-2.80
2023-01-26T20:26:25.460Z,-2.70
2023-01-26T20:28:53.741Z,-2.70
2023-01-26T20:31:23.777Z,-2.80
2023-01-26T20:33:53.481Z,-2.70
2023-01-26T20:36:23.423Z,-2.70
2023-01-26T20:38:50.427Z,-2.60
2023-01-26T20:41:21.950Z,-2.60
2023-01-26T20:43:59.213Z,-2.60
2023-01-26T20:46:29.885Z,-2.70
2023-01-26T20:48:57.024Z,-2.70
2023-01-26T20:51:30.640Z,-2.70
2023-01-26T20:53:58.392Z,-2.70
2023-01-26T20:56:25.697Z,-2.70
2023-01-26T20:58:54.139Z,-2.70
2023-01-26T21:01:22.555Z,-2.60
2023-01-26T21:03:49.606Z,-2.70
2023-01-26T21:06:20.821Z,-2.70
2023-01-26T21:08:54.031Z,-2.70
2023-01-26T21:11:22.794Z,-2.70
2023-01-26T21:13:49.814Z,-2.70
2023-01-26T21:16:17.511Z,-2.60
2023-01-26T21:18:46.018Z,-2.70
2023-01-26T21:21:17.551Z,-2.70
2023-01-26T21:23:45.168Z,-2.80
2023-01-26T21:26:14.675Z,-2.70
2023-01-26T21:28:41.575Z,-2.70
2023-01-26T21:31:09.640Z,-2.80
2023-01-26T21:33:39.587Z,-2.80
2023-01-26T21:36:09.333Z,-2.70
2023-01-26T21:38:39.360Z,-2.70
2023-01-26T21:41:29.052Z,-2.70
2023-01-26T21:44:03.668Z,-2.60
2023-01-26T21:46:30.975Z,-2.70
2023-01-26T21:48:58.745Z,-2.70
2023-01-26T21:51:45.310Z,-2.70
2023-01-26T21:54:13.242Z,-2.70
2023-01-26T21:56:40.486Z,-2.80
2023-01-26T21:59:11.303Z,-2.80
2023-01-26T22:01:46.244Z,-2.80
2023-01-26T22:04:16.250Z,-2.70
2023-01-26T22:06:43.484Z,-2.80
2023-01-26T22:09:12.689Z,-2.80
2023-01-26T22:11:39.948Z,-2.80
2023-01-26T22:14:09.231Z,-2.70
2023-01-26T22:16:36.201Z,-2.80
2023-01-26T22:19:03.695Z,-2.80
2023-01-26T22:21:31.210Z,-2.80
2023-01-26T22:23:58.201Z,-2.80
2023-01-26T22:26:25.220Z,-2.70
2023-01-26T22:28:56.907Z,-2.70
2023-01-26T22:31:27.006Z,-2.70
2023-01-26T22:33:55.479Z,-2.70
2023-01-26T22:36:22.775Z,-2.70
2023-01-26T22:38:50.453Z,-2.80
2023-01-26T22:41:20.556Z,-2.80
2023-01-26T22:43:52.338Z,-2.70
2023-01-26T22:46:20.734Z,-2.70
2023-01-26T22:48:47.943Z,-2.70
2023-01-26T22:51:18.294Z,-2.70
2023-01-26T22:53:45.653Z,-2.60
2023-01-26T22:56:12.716Z,-2.60
2023-01-26T22:58:55.563Z,-2.60
2023-01-26T23:01:24.995Z,-2.60
2023-01-26T23:03:54.134Z,-2.60
2023-01-26T23:06:21.668Z,-2.60
2023-01-26T23:08:48.554Z,-2.70
2023-01-26T23:11:22.139Z,-2.80
2023-01-26T23:13:50.871Z,-2.80
2023-01-26T23:16:18.197Z,-2.80
2023-01-26T23:18:45.153Z,-2.70
2023-01-26T23:21:12.748Z,-2.60
2023-01-26T23:23:40.767Z,-2.70
2023-01-26T23:26:09.119Z,-2.70
2023-01-26T23:28:38.492Z,-2.80
2023-01-26T23:31:05.554Z,-2.80
2023-01-26T23:33:34.678Z,-2.80
2023-01-26T23:36:02.162Z,-2.80
2023-01-26T23:38:30.602Z,-2.90
2023-01-26T23:41:00.285Z,-2.90
2023-01-26T23:43:28.237Z,-3.00
2023-01-26T23:45:56.632Z,-2.90
2023-01-26T23:48:24.885Z,-2.90
2023-01-26T23:50:56.822Z,-2.90
2023-01-26T23:53:24.179Z,-2.80
2023-01-26T23:55:51.300Z,-2.80
2023-01-26T23:58:18.909Z,-2.70
